Time;durP1;ratioP1;P1;durP2;ratioP2;P2;SDS_P1;SDS_P2;PMS_P1;PMS_P2;Temp;Humidity;BMP_temperature;BMP_pressure;BME280_temperature;BME280_humidity;BME280_pressure;Samples;Min_cycle;Max_cycle;Signal;HPM_P1;HPM_P2
2022/08/18 00:01:03;;;;;;;2.60;2.38;;;;;;;-145.06;100.00;60892.56;4836398;28;20034;-87
2022/08/18 00:03:44;;;;;;;3.10;2.38;;;;;;;-145.06;100.00;60892.56;4831548;28;20073;-89
2022/08/18 00:06:23;;;;;;;2.58;2.22;;;;;;;-145.06;100.00;60892.56;4832398;28;20037;-89
2022/08/18 00:09:05;;;;;;;2.50;2.30;;;;;;;-145.06;100.00;60892.56;4831749;28;20436;-89
2022/08/18 00:11:44;;;;;;;3.05;2.50;;;;;;;-145.06;100.00;60892.56;4834790;28;20121;-89
2022/08/18 00:14:23;;;;;;;3.00;2.50;;;;;;;-145.06;100.00;60892.56;4834251;28;20400;-89
2022/08/18 00:17:02;;;;;;;2.85;2.35;;;;;;;-145.06;100.00;60892.56;4831022;28;20629;-88
2022/08/18 00:19:41;;;;;;;2.35;1.92;;;;;;;-145.06;100.00;60892.56;4831297;28;20388;-90
2022/08/18 00:22:21;;;;;;;2.30;2.08;;;;;;;-145.06;100.00;60892.56;4835947;28;20377;-88
2022/08/18 00:25:00;;;;;;;2.28;1.95;;;;;;;-145.06;100.00;60892.56;4826935;28;20042;-89
2022/08/18 00:27:40;;;;;;;2.30;2.10;;;;;;;-145.06;100.00;60892.56;4835897;28;20829;-88
2022/08/18 00:30:20;;;;;;;2.55;2.35;;;;;;;-145.06;100.00;60892.56;4832547;28;20037;-88
2022/08/18 00:33:00;;;;;;;2.65;2.45;;;;;;;-145.06;100.00;60892.56;4833203;28;20030;-89
2022/08/18 00:35:39;;;;;;;2.85;2.47;;;;;;;-145.06;100.00;60892.56;4828253;28;20030;-88
2022/08/18 00:38:18;;;;;;;2.55;2.35;;;;;;;-145.06;100.00;60892.56;4837165;28;20026;-89
2022/08/18 00:40:57;;;;;;;2.75;2.38;;;;;;;-145.06;100.00;60892.56;4834828;28;20041;-88
2022/08/18 00:43:57;;;;;;;2.55;2.35;;;;;;;-145.06;100.00;60892.56;4832333;28;20026;-88
2022/08/18 00:46:37;;;;;;;2.80;2.38;;;;;;;-145.06;100.00;60892.56;4831196;28;20487;-87
2022/08/18 00:49:17;;;;;;;2.55;2.28;;;;;;;-145.06;100.00;60892.56;4835326;28;20484;-89
2022/08/18 00:51:57;;;;;;;2.90;2.60;;;;;;;-145.06;100.00;60892.56;4828389;28;20373;-90
2022/08/18 00:54:40;;;;;;;2.97;2.08;;;;;;;-145.06;100.00;60892.56;4843910;28;20022;-88
2022/08/18 00:57:21;;;;;;;2.42;2.20;;;;;;;-145.06;100.00;60892.56;4858587;28;20006;-89
2022/08/18 01:00:10;;;;;;;2.60;2.15;;;;;;;-145.06;100.00;60892.56;4830594;28;20504;-88
2022/08/18 01:02:55;;;;;;;3.30;2.45;;;;;;;-145.06;100.00;60892.56;4827096;28;20034;-88
2022/08/18 01:05:39;;;;;;;3.83;2.55;;;;;;;-145.06;100.00;60892.56;4836217;28;20037;-90
2022/08/18 01:08:19;;;;;;;2.70;2.50;;;;;;;-145.06;100.00;60892.56;4826745;28;20472;-89
2022/08/18 01:11:01;;;;;;;3.38;2.65;;;;;;;-145.06;100.00;60892.56;4831670;28;20030;-87
2022/08/18 01:13:41;;;;;;;3.08;2.78;;;;;;;-145.06;100.00;60892.56;4834395;28;20034;-88
2022/08/18 01:22:25;;;;;;;3.30;2.80;;;;;;;-145.06;100.00;60892.56;4829743;28;20045;-88
2022/08/18 01:28:05;;;;;;;3.25;2.75;;;;;;;-145.06;100.00;60892.56;4833784;28;20029;-88
2022/08/18 01:30:47;;;;;;;2.85;2.55;;;;;;;-145.06;100.00;60892.56;4827459;28;20025;-88
2022/08/18 01:33:32;;;;;;;3.53;3.00;;;;;;;-145.06;100.00;60892.56;4830735;28;20404;-88
2022/08/18 01:36:17;;;;;;;2.90;2.45;;;;;;;-145.06;100.00;60892.56;4832199;28;20436;-89
2022/08/18 01:38:56;;;;;;;4.10;3.53;;;;;;;-145.06;100.00;60892.56;4835212;28;20038;-89
2022/08/18 01:41:36;;;;;;;4.20;3.08;;;;;;;-145.06;100.00;60892.56;4861076;28;20376;-88
2022/08/18 01:44:15;;;;;;;3.75;3.17;;;;;;;-145.06;100.00;60892.56;4829896;28;20455;-89
2022/08/18 01:46:55;;;;;;;3.72;3.08;;;;;;;-145.06;100.00;60892.56;4832065;28;20033;-89
2022/08/18 01:49:34;;;;;;;3.38;3.08;;;;;;;-145.06;100.00;60892.56;4824699;28;20041;-88
2022/08/18 01:52:18;;;;;;;3.50;2.70;;;;;;;-145.06;100.00;60892.56;4832728;28;20112;-87
2022/08/18 01:54:57;;;;;;;3.53;3.22;;;;;;;-145.06;100.00;60892.56;4830520;28;20041;-88
2022/08/18 01:57:43;;;;;;;4.20;3.30;;;;;;;-145.06;100.00;60892.56;4826633;28;20033;-88
2022/08/18 02:00:24;;;;;;;4.32;3.58;;;;;;;-145.06;100.00;60892.56;4830377;28;20029;-87
2022/08/18 02:03:10;;;;;;;4.88;3.80;;;;;;;-145.06;100.00;60892.56;4831510;28;20034;-88
2022/08/18 02:05:49;;;;;;;4.05;3.55;;;;;;;-145.06;100.00;60892.56;4831206;28;20471;-88
2022/08/18 02:08:29;;;;;;;;;;;;;;;-145.06;100.00;60892.56;4828251;28;20045;-89
2022/08/18 02:11:07;;;;;;;4.17;3.37;;;;;;;-145.06;100.00;60892.56;4828437;28;19909;-89
2022/08/18 02:13:46;;;;;;;4.33;3.53;;;;;;;-145.06;100.00;60892.56;4829935;28;20069;-89
2022/08/18 02:16:25;;;;;;;4.15;3.75;;;;;;;-145.06;100.00;60892.56;4829198;28;20046;-89
2022/08/18 02:19:04;;;;;;;3.97;3.33;;;;;;;-145.06;100.00;60892.56;4827230;28;20472;-88
2022/08/18 02:21:43;;;;;;;4.68;3.22;;;;;;;-145.06;100.00;60892.56;4832519;28;20108;-88
2022/08/18 02:24:22;;;;;;;3.35;3.03;;;;;;;-145.06;100.00;60892.56;4828868;28;20624;-88
2022/08/18 02:27:01;;;;;;;4.00;3.40;;;;;;;-145.06;100.00;60892.56;4831480;28;20029;-88
2022/08/18 02:29:40;;;;;;;5.82;4.47;;;;;;;-145.06;100.00;60892.56;4822210;28;20671;-89
2022/08/18 02:32:19;;;;;;;5.28;3.90;;;;;;;-145.06;100.00;60892.56;4830471;28;20401;-88
2022/08/18 02:34:59;;;;;;;4.93;4.20;;;;;;;-145.06;100.00;60892.56;4834308;28;20030;-89
2022/08/18 02:37:40;;;;;;;5.15;4.30;;;;;;;-145.06;100.00;60892.56;4831487;28;20277;-88
2022/08/18 02:40:19;;;;;;;6.28;4.53;;;;;;;-145.06;100.00;60892.56;4841282;28;20038;-87
2022/08/18 02:43:03;;;;;;;6.50;4.70;;;;;;;-145.06;100.00;60892.56;4830511;28;20491;-89
2022/08/18 02:45:42;;;;;;;5.75;4.57;;;;;;;-145.06;100.00;60892.56;4840826;28;20042;-89
2022/08/18 02:48:33;;;;;;;6.55;4.38;;;;;;;-145.06;100.00;60892.56;4833262;28;20033;-89
2022/08/18 02:51:15;;;;;;;6.47;4.50;;;;;;;-145.06;100.00;60892.56;4835983;28;20038;-88
2022/08/18 02:53:57;;;;;;;6.15;4.63;;;;;;;-145.06;100.00;60892.56;4840428;28;20022;-87
2022/08/18 02:56:36;;;;;;;5.18;4.03;;;;;;;-145.06;100.00;60892.56;4836097;28;20030;-88
2022/08/18 02:59:23;;;;;;;6.03;4.20;;;;;;;-145.06;100.00;60892.56;4836492;28;20033;-89
2022/08/18 03:02:02;;;;;;;6.65;4.50;;;;;;;-145.06;100.00;60892.56;4837170;28;20481;-88
2022/08/18 03:04:41;;;;;;;6.60;4.95;;;;;;;-145.06;100.00;60892.56;4833789;28;20041;-87
2022/08/18 03:07:20;;;;;;;6.45;4.65;;;;;;;-145.06;100.00;60892.56;4836329;28;20026;-88
2022/08/18 03:09:59;;;;;;;6.97;4.60;;;;;;;-145.06;100.00;60892.56;4832368;28;20521;-89
2022/08/18 03:12:42;;;;;;;5.68;4.32;;;;;;;-145.06;100.00;60892.56;4830475;28;20297;-88
2022/08/18 03:15:21;;;;;;;6.35;4.72;;;;;;;-145.06;100.00;60892.56;4829853;28;20801;-89
2022/08/18 03:18:00;;;;;;;8.47;5.33;;;;;;;-145.06;100.00;60892.56;4836449;28;20377;-88
2022/08/18 03:20:39;;;;;;;5.67;4.33;;;;;;;-145.06;100.00;60892.56;4831247;28;20308;-89
2022/08/18 03:23:18;;;;;;;5.65;4.32;;;;;;;-145.06;100.00;60892.56;4832859;28;20041;-89
2022/08/18 03:25:56;;;;;;;5.93;4.03;;;;;;;-145.06;100.00;60892.56;4833426;28;20038;-88
2022/08/18 03:28:37;;;;;;;6.90;4.93;;;;;;;-145.06;100.00;60892.56;4828483;28;20030;-89
2022/08/18 03:31:18;;;;;;;5.65;4.03;;;;;;;-145.06;100.00;60892.56;4833389;28;20057;-87
2022/08/18 03:33:59;;;;;;;6.25;4.20;;;;;;;-145.06;100.00;60892.56;4831338;28;20463;-88
2022/08/18 03:36:40;;;;;;;4.65;3.65;;;;;;;-145.06;100.00;60892.56;4834968;28;20029;-89
2022/08/18 03:39:23;;;;;;;5.78;4.20;;;;;;;-145.06;100.00;60892.56;4833584;28;20029;-88
2022/08/18 03:42:02;;;;;;;4.95;3.80;;;;;;;-145.06;100.00;60892.56;4828083;28;20030;-89
2022/08/18 03:44:42;;;;;;;5.85;3.97;;;;;;;-145.06;100.00;60892.56;4855273;28;20101;-90
2022/08/18 03:47:21;;;;;;;6.00;4.50;;;;;;;-145.06;100.00;60892.56;4831873;28;20576;-89
2022/08/18 03:50:00;;;;;;;4.47;3.70;;;;;;;-145.06;100.00;60892.56;4834185;28;20273;-88
2022/08/18 03:52:38;;;;;;;5.28;3.83;;;;;;;-145.06;100.00;60892.56;4859358;28;20026;-88
2022/08/18 03:55:18;;;;;;;5.10;3.80;;;;;;;-145.06;100.00;60892.56;4832210;28;20046;-88
2022/08/18 03:58:01;;;;;;;5.70;3.80;;;;;;;-145.06;100.00;60892.56;4834597;28;20037;-88
2022/08/18 04:00:40;;;;;;;5.03;3.50;;;;;;;-145.06;100.00;60892.56;4844911;28;20030;-90
2022/08/18 04:03:19;;;;;;;4.23;3.37;;;;;;;-145.06;100.00;60892.56;4845566;28;20026;-89
2022/08/18 04:05:58;;;;;;;5.93;4.00;;;;;;;-145.06;100.00;60892.56;4835525;28;20268;-88
2022/08/18 04:08:37;;;;;;;4.38;3.40;;;;;;;-145.06;100.00;60892.56;4828349;28;20351;-88
2022/08/18 04:11:17;;;;;;;5.30;3.38;;;;;;;-145.06;100.00;60892.56;4839989;28;20121;-90
2022/08/18 04:13:57;;;;;;;5.38;3.90;;;;;;;-145.06;100.00;60892.56;4828432;28;20794;-89
2022/08/18 04:16:37;;;;;;;4.90;3.85;;;;;;;-145.06;100.00;60892.56;4833821;28;20038;-89
2022/08/18 04:19:16;;;;;;;;;;;;;;;-145.06;100.00;60892.56;4827780;28;20484;-90
2022/08/18 04:21:56;;;;;;;4.03;2.88;;;;;;;-145.06;100.00;60892.56;4831405;28;19917;-89
2022/08/18 04:24:35;;;;;;;5.72;3.13;;;;;;;-145.06;100.00;60892.56;4827367;28;20046;-89
2022/08/18 04:27:15;;;;;;;5.18;3.63;;;;;;;-145.06;100.00;60892.56;4834184;28;20030;-88
2022/08/18 04:29:55;;;;;;;5.25;3.92;;;;;;;-145.06;100.00;60892.56;4833631;28;20038;-89
2022/08/18 04:32:34;;;;;;;5.32;3.90;;;;;;;-145.06;100.00;60892.56;4826522;28;20105;-88
2022/08/18 04:35:13;;;;;;;5.43;4.05;;;;;;;-145.06;100.00;60892.56;4832076;28;20594;-89
2022/08/18 04:37:52;;;;;;;6.68;4.47;;;;;;;-145.06;100.00;60892.56;4831088;28;20034;-88
2022/08/18 04:40:32;;;;;;;5.10;3.97;;;;;;;-145.06;100.00;60892.56;4832414;28;20022;-89
2022/08/18 04:43:14;;;;;;;;;;;;;;;-145.06;100.00;60892.56;4832483;28;20281;-90
2022/08/18 04:45:52;;;;;;;5.20;3.65;;;;;;;-145.06;100.00;60892.56;4835176;28;19913;-89
2022/08/18 04:48:37;;;;;;;5.50;3.85;;;;;;;-145.06;100.00;60892.56;4829299;28;20033;-89
2022/08/18 04:51:19;;;;;;;5.32;4.15;;;;;;;-145.06;100.00;60892.56;4837962;28;20045;-89
2022/08/18 04:53:59;;;;;;;6.35;4.85;;;;;;;-145.06;100.00;60892.56;4834113;28;20029;-88
2022/08/18 04:56:38;;;;;;;6.93;5.00;;;;;;;-145.06;100.00;60892.56;4833995;28;20377;-88
2022/08/18 04:59:17;;;;;;;7.35;5.63;;;;;;;-145.06;100.00;60892.56;4834973;28;20041;-89
2022/08/18 05:02:00;;;;;;;8.18;5.05;;;;;;;-145.06;100.00;60892.56;4828615;28;20042;-88
2022/08/18 05:04:40;;;;;;;6.95;5.15;;;;;;;-145.06;100.00;60892.56;4859839;28;20041;-88
2022/08/18 05:07:24;;;;;;;7.10;5.05;;;;;;;-145.06;100.00;60892.56;4830921;28;20053;-89
2022/08/18 05:10:04;;;;;;;7.75;5.22;;;;;;;-145.06;100.00;60892.56;4832268;28;20038;-89
2022/08/18 05:12:45;;;;;;;6.95;4.70;;;;;;;-145.06;100.00;60892.56;4830300;28;20021;-89
2022/08/18 05:15:25;;;;;;;8.48;5.10;;;;;;;-145.06;100.00;60892.56;4833294;28;20046;-89
2022/08/18 05:18:04;;;;;;;8.43;5.32;;;;;;;-145.06;100.00;60892.56;4835771;28;20029;-89
2022/08/18 05:20:43;;;;;;;10.15;5.55;;;;;;;-145.06;100.00;60892.56;4828353;28;20041;-87
2022/08/18 05:23:23;;;;;;;7.60;4.78;;;;;;;-145.06;100.00;60892.56;4829262;28;20034;-88
2022/08/18 05:26:02;;;;;;;8.70;5.43;;;;;;;-145.06;100.00;60892.56;4832574;28;20479;-88
2022/08/18 05:28:43;;;;;;;8.82;5.13;;;;;;;-145.06;100.00;60892.56;4832055;28;20034;-88
2022/08/18 05:31:25;;;;;;;8.40;5.32;;;;;;;-145.06;100.00;60892.56;4833383;28;20037;-89
2022/08/18 05:34:04;;;;;;;7.57;4.88;;;;;;;-145.06;100.00;60892.56;4837647;28;20038;-89
2022/08/18 05:36:50;;;;;;;7.82;5.00;;;;;;;-145.06;100.00;60892.56;4833633;28;20117;-89
2022/08/18 05:39:34;;;;;;;7.35;4.65;;;;;;;-145.06;100.00;60892.56;4838669;28;20404;-89
2022/08/18 05:42:17;;;;;;;10.38;5.90;;;;;;;-145.06;100.00;60892.56;4836161;28;20823;-88
2022/08/18 05:44:56;;;;;;;9.13;5.93;;;;;;;-145.06;100.00;60892.56;4829687;28;20029;-88
2022/08/18 05:47:35;;;;;;;10.10;5.77;;;;;;;-145.06;100.00;60892.56;4824219;28;20491;-87
2022/08/18 05:50:19;;;;;;;8.93;5.47;;;;;;;-145.06;100.00;60892.56;4832542;28;20112;-88
2022/08/18 05:56:45;;;;;;;7.68;5.35;;;;;;;-145.06;100.00;60892.56;4835014;28;20277;-89
2022/08/18 05:59:33;;;;;;;8.50;5.25;;;;;;;-145.06;100.00;60892.56;4830992;28;20033;-88
2022/08/18 06:02:20;;;;;;;9.75;6.18;;;;;;;-145.06;100.00;60892.56;4830662;28;20066;-89
2022/08/18 06:05:06;;;;;;;11.95;6.68;;;;;;;-145.06;100.00;60892.56;4833667;28;20034;-88
2022/08/18 06:07:57;;;;;;;11.30;6.63;;;;;;;-145.06;100.00;60892.56;4831002;28;20555;-88
2022/08/18 06:10:42;;;;;;;11.82;6.65;;;;;;;-145.06;100.00;60892.56;4858704;28;20029;-89
2022/08/18 06:13:21;;;;;;;11.63;6.85;;;;;;;-145.06;100.00;60892.56;4832021;28;20026;-88
2022/08/18 06:16:12;;;;;;;12.55;7.03;;;;;;;-145.06;100.00;60892.56;4831045;28;20029;-89
2022/08/18 06:19:01;;;;;;;13.32;6.60;;;;;;;-145.06;100.00;60892.56;4830106;28;20388;-89
2022/08/18 06:22:14;;;;;;;10.10;6.15;;;;;;;-145.06;100.00;60892.56;4827818;28;20101;-90
2022/08/18 06:25:00;;;;;;;10.18;6.20;;;;;;;-145.06;100.00;60892.56;4828755;28;20081;-89
2022/08/18 06:27:54;;;;;;;10.80;6.13;;;;;;;-145.06;100.00;60892.56;4828342;28;20065;-89
2022/08/18 06:30:48;;;;;;;11.93;6.80;;;;;;;-145.06;100.00;60892.56;4830428;28;20408;-88
2022/08/18 06:34:00;;;;;;;10.93;5.97;;;;;;;-145.06;100.00;60892.56;4837719;28;20109;-89
2022/08/18 06:36:58;;;;;;;10.63;5.90;;;;;;;-145.06;100.00;60892.56;4827701;28;20022;-88
2022/08/18 06:39:40;;;;;;;11.50;6.32;;;;;;;-145.06;100.00;60892.56;4828074;28;20033;-89
2022/08/18 06:42:25;;;;;;;11.27;6.47;;;;;;;-145.06;100.00;60892.56;4834862;28;20085;-88
2022/08/18 06:45:12;;;;;;;13.35;6.95;;;;;;;-145.06;100.00;60892.56;4832487;28;20104;-89
2022/08/18 06:48:03;;;;;;;10.20;6.55;;;;;;;-145.06;100.00;60892.56;4829308;28;20480;-89
2022/08/18 06:50:56;;;;;;;8.88;5.63;;;;;;;-145.06;100.00;60892.56;4833503;28;20025;-88
2022/08/18 06:53:59;;;;;;;11.25;6.13;;;;;;;-145.06;100.00;60892.56;4839186;28;20052;-89
2022/08/18 06:56:38;;;;;;;10.75;6.20;;;;;;;-145.06;100.00;60892.56;4834025;28;20030;-89
2022/08/18 06:59:30;;;;;;;12.20;6.32;;;;;;;-145.06;100.00;60892.56;4842701;28;20532;-89
2022/08/18 07:02:24;;;;;;;12.38;6.85;;;;;;;-145.06;100.00;60892.56;4837566;28;20033;-88
2022/08/18 07:05:25;;;;;;;13.65;7.05;;;;;;;-145.06;100.00;60892.56;4856668;28;20010;-90
2022/08/18 07:08:13;;;;;;;10.73;6.47;;;;;;;-145.06;100.00;60892.56;4869650;28;20026;-88
2022/08/18 07:10:52;;;;;;;11.45;6.43;;;;;;;-145.06;100.00;60892.56;4857701;28;20030;-89
2022/08/18 07:13:39;;;;;;;11.65;6.32;;;;;;;-145.06;100.00;60892.56;4829534;28;20026;-90
2022/08/18 07:16:21;;;;;;;10.48;6.03;;;;;;;-145.06;100.00;60892.56;4834348;28;20079;-88
2022/08/18 07:19:10;;;;;;;11.90;6.55;;;;;;;-145.06;100.00;60892.56;4840420;28;20018;-89
2022/08/18 07:22:05;;;;;;;10.43;5.95;;;;;;;-145.06;100.00;60892.56;4835026;28;20030;-89
2022/08/18 07:24:48;;;;;;;9.82;5.40;;;;;;;-145.06;100.00;60892.56;4831221;28;20038;-89
2022/08/18 07:27:48;;;;;;;9.88;6.10;;;;;;;-145.06;100.00;60892.56;4831588;28;20038;-88
2022/08/18 07:30:33;;;;;;;8.95;5.80;;;;;;;-145.06;100.00;60892.56;4826731;28;20124;-89
2022/08/18 07:33:20;;;;;;;9.23;5.32;;;;;;;-145.06;100.00;60892.56;4836838;28;20424;-89
2022/08/18 07:36:05;;;;;;;9.77;5.70;;;;;;;-145.06;100.00;60892.56;4837548;28;20029;-89
2022/08/18 07:39:27;;;;;;;9.50;5.75;;;;;;;-145.06;100.00;60892.56;4837189;28;20495;-89
2022/08/18 07:42:20;;;;;;;9.25;5.25;;;;;;;-145.06;100.00;60892.56;4834656;28;21849;-89
2022/08/18 07:45:11;;;;;;;7.40;4.75;;;;;;;-145.06;100.00;60892.56;4862989;28;20042;-89
2022/08/18 07:47:59;;;;;;;6.30;4.65;;;;;;;-145.06;100.00;60892.56;4831811;28;20038;-89
2022/08/18 07:50:51;;;;;;;7.55;4.40;;;;;;;-145.06;100.00;60892.56;4838270;28;20049;-89
2022/08/18 07:53:58;;;;;;;5.32;3.90;;;;;;;-145.06;100.00;60892.56;4836787;28;20030;-89
2022/08/18 07:56:50;;;;;;;4.43;3.10;;;;;;;-145.06;100.00;60892.56;4838219;28;20037;-89
2022/08/18 07:59:41;;;;;;;6.00;2.75;;;;;;;-145.06;100.00;60892.56;4829924;28;20034;-89
2022/08/18 08:02:39;;;;;;;4.30;2.90;;;;;;;-145.06;100.00;60892.56;4832755;28;20025;-88
2022/08/18 08:05:38;;;;;;;5.30;3.03;;;;;;;-145.06;100.00;60892.56;4837474;28;20033;-90
2022/08/18 08:08:40;;;;;;;3.97;3.17;;;;;;;-145.06;100.00;60892.56;4837747;28;20030;-89
2022/08/18 08:11:44;;;;;;;4.68;3.47;;;;;;;-145.06;100.00;60892.56;4839390;28;20029;-89
2022/08/18 08:14:45;;;;;;;4.95;3.83;;;;;;;-145.06;100.00;60892.56;4846763;28;20017;-89
2022/08/18 08:17:33;;;;;;;5.75;4.07;;;;;;;-145.06;100.00;60892.56;4837659;28;20699;-89
2022/08/18 08:20:24;;;;;;;6.00;4.45;;;;;;;-145.06;100.00;60892.56;4835161;28;20025;-90
2022/08/18 08:23:03;;;;;;;6.13;4.03;;;;;;;-145.06;100.00;60892.56;4834272;28;20030;-89
2022/08/18 08:25:50;;;;;;;6.85;4.25;;;;;;;-145.06;100.00;60892.56;4837899;28;20029;-90
2022/08/18 08:28:47;;;;;;;4.85;3.33;;;;;;;-145.06;100.00;60892.56;4831703;28;20041;-89
2022/08/18 08:32:00;;;;;;;4.28;3.50;;;;;;;-145.06;100.00;60892.56;4836485;28;20037;-89
2022/08/18 08:34:50;;;;;;;4.20;3.35;;;;;;;-145.06;100.00;60892.56;4833745;28;20472;-89
2022/08/18 08:37:37;;;;;;;4.00;3.40;;;;;;;-145.06;100.00;60892.56;4843048;28;20030;-90
2022/08/18 08:40:22;;;;;;;4.22;3.42;;;;;;;-145.06;100.00;60892.56;4835802;28;20037;-90
2022/08/18 08:43:09;;;;;;;4.30;3.40;;;;;;;-145.06;100.00;60892.56;4841964;28;20026;-89
2022/08/18 08:46:00;;;;;;;3.67;3.00;;;;;;;-145.06;100.00;60892.56;4832669;28;20101;-88
2022/08/18 08:48:44;;;;;;;4.70;3.13;;;;;;;-145.06;100.00;60892.56;4844619;28;20108;-89
2022/08/18 08:51:33;;;;;;;4.55;3.55;;;;;;;-145.06;100.00;60892.56;4836102;28;20030;-90
2022/08/18 08:54:22;;;;;;;4.15;3.28;;;;;;;-145.06;100.00;60892.56;4836765;28;20034;-89
2022/08/18 08:57:03;;;;;;;3.10;2.38;;;;;;;-145.06;100.00;60892.56;4834362;28;20029;-89
2022/08/18 08:59:49;;;;;;;3.80;3.17;;;;;;;-145.06;100.00;60892.56;4838012;28;20034;-92
2022/08/18 09:02:42;;;;;;;3.92;2.97;;;;;;;-145.06;100.00;60892.56;4839980;28;20033;-89
2022/08/18 09:05:28;;;;;;;3.58;2.95;;;;;;;-145.06;100.00;60892.56;4838231;28;20053;-90
2022/08/18 09:08:45;;;;;;;4.13;3.33;;;;;;;-145.06;100.00;60892.56;4836427;28;20034;-88
2022/08/18 09:12:00;;;;;;;4.25;3.28;;;;;;;-145.06;100.00;60892.56;4852181;28;20049;-89
2022/08/18 09:15:04;;;;;;;4.13;3.60;;;;;;;-145.06;100.00;60892.56;4819823;28;20030;-88
2022/08/18 09:18:14;;;;;;;4.20;3.05;;;;;;;-145.06;100.00;60892.56;4837989;28;20030;-89
2022/08/18 09:21:31;;;;;;;3.75;2.95;;;;;;;-145.06;100.00;60892.56;4832308;28;20026;-88
2022/08/18 09:24:37;;;;;;;5.82;3.17;;;;;;;-145.06;100.00;60892.56;4842227;28;20034;-89
2022/08/18 09:30:50;;;;;;;3.28;2.72;;;;;;;-145.06;100.00;60892.56;4826329;28;20026;-89
2022/08/18 09:33:35;;;;;;;4.53;3.25;;;;;;;-145.06;100.00;60892.56;4838287;28;20042;-89
2022/08/18 09:36:38;;;;;;;3.80;3.00;;;;;;;-145.06;100.00;60892.56;4835288;28;20372;-89
2022/08/18 09:42:56;;;;;;;5.03;3.83;;;;;;;-145.06;100.00;60892.56;4838733;28;20377;-90
2022/08/18 09:45:52;;;;;;;4.03;3.17;;;;;;;-145.06;100.00;60892.56;4830280;28;20038;-89
2022/08/18 09:48:32;;;;;;;4.03;3.13;;;;;;;-145.06;100.00;60892.56;4838454;28;20037;-90
2022/08/18 09:51:14;;;;;;;4.43;3.45;;;;;;;-145.06;100.00;60892.56;4839700;28;20030;-89
2022/08/18 09:54:07;;;;;;;4.47;3.38;;;;;;;-145.06;100.00;60892.56;4837247;28;20021;-90
2022/08/18 09:56:49;;;;;;;4.57;3.50;;;;;;;-145.06;100.00;60892.56;4841983;28;20604;-89
2022/08/18 09:59:31;;;;;;;4.60;3.58;;;;;;;-145.06;100.00;60892.56;4836249;28;20042;-90
2022/08/18 10:02:35;;;;;;;3.95;3.20;;;;;;;-145.06;100.00;60892.56;4836290;28;20026;-91
2022/08/18 10:05:14;;;;;;;3.83;3.03;;;;;;;-145.06;100.00;60892.56;4832156;28;20038;-91
2022/08/18 10:08:02;;;;;;;4.15;3.33;;;;;;;-145.06;100.00;60892.56;4850594;28;20062;-90
2022/08/18 10:10:46;;;;;;;3.88;3.28;;;;;;;-145.06;100.00;60892.56;4857600;28;20034;-89
2022/08/18 10:13:28;;;;;;;3.80;3.40;;;;;;;-145.06;100.00;60892.56;4835080;28;20784;-90
2022/08/18 10:16:18;;;;;;;4.25;3.40;;;;;;;-145.06;100.00;60892.56;4835274;28;20545;-89
2022/08/18 10:19:05;;;;;;;4.75;3.22;;;;;;;-145.06;100.00;60892.56;4832197;28;20029;-88
2022/08/18 10:22:05;;;;;;;3.65;3.13;;;;;;;-145.06;100.00;60892.56;4828137;28;20029;-91
2022/08/18 10:24:53;;;;;;;3.33;3.00;;;;;;;-145.06;100.00;60892.56;4840766;28;20120;-89
2022/08/18 10:27:44;;;;;;;4.57;3.65;;;;;;;-145.06;100.00;60892.56;4840535;28;20034;-89
2022/08/18 10:30:27;;;;;;;4.60;3.33;;;;;;;-145.06;100.00;60892.56;4834309;28;20037;-89
2022/08/18 10:33:10;;;;;;;3.80;2.88;;;;;;;-145.06;100.00;60892.56;4829129;28;20022;-88
2022/08/18 10:35:59;;;;;;;4.70;3.40;;;;;;;-145.06;100.00;60892.56;4824978;28;20648;-89
2022/08/18 10:38:43;;;;;;;;;;;;;;;-145.06;100.00;60892.56;4827767;28;20026;-91
2022/08/18 10:41:30;;;;;;;4.40;2.95;;;;;;;-145.06;100.00;60892.56;4836684;28;19917;-89
2022/08/18 10:44:15;;;;;;;3.35;2.75;;;;;;;-145.06;100.00;60892.56;4852332;28;20484;-88
2022/08/18 10:46:58;;;;;;;4.68;3.20;;;;;;;-145.06;100.00;60892.56;4831847;28;20034;-88
2022/08/18 10:49:37;;;;;;;3.72;2.80;;;;;;;-145.06;100.00;60892.56;4830769;28;20041;-88
2022/08/18 10:52:35;;;;;;;8.32;3.92;;;;;;;-145.06;100.00;60892.56;4831809;28;20034;-87
2022/08/18 10:55:32;;;;;;;3.80;2.63;;;;;;;-145.06;100.00;60892.56;4838657;28;20029;-87
2022/08/18 10:58:29;;;;;;;4.47;3.17;;;;;;;-145.06;100.00;60892.56;4828573;28;20484;-86
2022/08/18 11:01:19;;;;;;;3.60;2.90;;;;;;;-145.06;100.00;60892.56;4827275;28;20539;-87
2022/08/18 11:04:08;;;;;;;3.95;2.80;;;;;;;-145.06;100.00;60892.56;4852381;28;20813;-87
2022/08/18 11:06:52;;;;;;;3.58;3.00;;;;;;;-145.06;100.00;60892.56;4832547;28;20038;-87
2022/08/18 11:09:32;;;;;;;5.50;3.22;;;;;;;-145.06;100.00;60892.56;4828672;28;20064;-88
2022/08/18 11:12:13;;;;;;;4.00;3.38;;;;;;;-145.06;100.00;60892.56;4827957;28;20033;-88
2022/08/18 11:15:05;;;;;;;3.65;3.08;;;;;;;-145.06;100.00;60892.56;4829259;28;20053;-87
2022/08/18 11:18:16;;;;;;;4.28;3.25;;;;;;;-145.06;100.00;60892.56;4828296;28;20065;-88
2022/08/18 11:21:21;;;;;;;3.63;3.03;;;;;;;-145.06;100.00;60892.56;4830066;28;20034;-88
2022/08/18 11:24:20;;;;;;;4.28;2.85;;;;;;;-145.06;100.00;60892.56;4832982;28;20034;-88
2022/08/18 11:27:05;;;;;;;3.45;3.15;;;;;;;-145.06;100.00;60892.56;4840552;28;20108;-89
2022/08/18 11:29:45;;;;;;;4.38;2.58;;;;;;;-145.06;100.00;60892.56;4831385;28;20041;-87
2022/08/18 11:32:38;;;;;;;3.60;3.00;;;;;;;-145.06;100.00;60892.56;4830069;28;20046;-87
2022/08/18 11:35:26;;;;;;;3.85;3.15;;;;;;;-145.06;100.00;60892.56;4830627;28;20033;-87
2022/08/18 11:38:14;;;;;;;3.10;2.55;;;;;;;-145.06;100.00;60892.56;4828804;28;20029;-88
2022/08/18 11:41:17;;;;;;;2.55;2.08;;;;;;;-145.06;100.00;60892.56;4830818;28;20722;-88
2022/08/18 11:44:02;;;;;;;2.78;2.58;;;;;;;-145.06;100.00;60892.56;4835625;28;20025;-88
2022/08/18 11:46:41;;;;;;;2.00;1.80;;;;;;;-145.06;100.00;60892.56;4828218;28;20034;-87
2022/08/18 11:49:32;;;;;;;2.15;1.95;;;;;;;-145.06;100.00;60892.56;4831294;28;20053;-88
2022/08/18 11:52:28;;;;;;;2.00;1.80;;;;;;;-145.06;100.00;60892.56;4835321;28;20034;-88
2022/08/18 11:55:26;;;;;;;3.10;2.13;;;;;;;-145.06;100.00;60892.56;4833718;28;20516;-87
2022/08/18 11:58:05;;;;;;;2.20;1.85;;;;;;;-145.06;100.00;60892.56;4834690;28;20025;-87
2022/08/18 12:00:44;;;;;;;2.78;2.00;;;;;;;-145.06;100.00;60892.56;4831775;28;20037;-89
2022/08/18 12:03:41;;;;;;;2.45;2.17;;;;;;;-145.06;100.00;60892.56;4829550;28;20033;-88
2022/08/18 12:06:28;;;;;;;2.25;2.00;;;;;;;-145.06;100.00;60892.56;4824705;28;20034;-89
2022/08/18 12:09:19;;;;;;;2.70;2.08;;;;;;;-145.06;100.00;60892.56;4832960;28;20038;-88
2022/08/18 12:12:03;;;;;;;2.55;2.35;;;;;;;-145.06;100.00;60892.56;4824672;28;20038;-89
2022/08/18 12:14:58;;;;;;;2.40;2.13;;;;;;;-145.06;100.00;60892.56;4832745;28;20373;-89
2022/08/18 12:17:38;;;;;;;3.03;1.75;;;;;;;-145.06;100.00;60892.56;4826455;28;20030;-89
2022/08/18 12:20:18;;;;;;;2.15;1.88;;;;;;;-145.06;100.00;60892.56;4830044;28;20034;-89
2022/08/18 12:22:57;;;;;;;1.95;1.73;;;;;;;-145.06;100.00;60892.56;4829184;28;20038;-88
2022/08/18 12:25:37;;;;;;;1.75;1.65;;;;;;;-145.06;100.00;60892.56;4830501;28;20038;-90
2022/08/18 12:28:15;;;;;;;2.38;1.92;;;;;;;-145.06;100.00;60892.56;4829863;28;20034;-89
2022/08/18 12:30:54;;;;;;;2.30;1.75;;;;;;;-145.06;100.00;60892.56;4828988;28;20033;-89
2022/08/18 12:33:35;;;;;;;2.20;2.00;;;;;;;-145.06;100.00;60892.56;4830852;28;20369;-89
2022/08/18 12:36:14;;;;;;;2.00;1.70;;;;;;;-145.06;100.00;60892.56;4828183;28;20029;-89
2022/08/18 12:38:53;;;;;;;2.25;2.05;;;;;;;-145.06;100.00;60892.56;4832040;28;20069;-88
2022/08/18 12:41:32;;;;;;;2.03;1.80;;;;;;;-145.06;100.00;60892.56;4827880;28;20042;-88
2022/08/18 12:44:11;;;;;;;1.80;1.70;;;;;;;-145.06;100.00;60892.56;4832149;28;20026;-88
2022/08/18 12:46:51;;;;;;;1.80;1.70;;;;;;;-145.06;100.00;60892.56;4829260;28;20034;-89
2022/08/18 12:49:30;;;;;;;;;;;;;;;-145.06;100.00;60892.56;4860887;28;20037;-89
2022/08/18 12:52:10;;;;;;;1.45;1.35;;;;;;;-145.06;100.00;60892.56;4832238;28;19917;-88